Flight Track Log - Related Links

Times and Time Zones

All times are in EDT time to prevent confusion due to time zone crossing. See the UAL4150 flight status page for this flight to view local times or setup timezone preferences in your user account.

Time Position Orientation Groundspeed Altitude Reporting Facility
EDT Latitude Longitude Course Direction KTS MPH feet Rate Location/Type
Fri 12:31:15 PM 41.3939 -81.8922 253° West 182 209 1,600  Level Cleveland Center
Fri 12:31:45 PM 41.3850 -81.9308 253° West 198 228 2,700 1,789 Climbing Cleveland Center
Fri 12:32:12 PM 41.3783 -81.9667 256° West 220 253 3,300 1,770 Climbing Cleveland Center
Fri 12:32:46 PM 41.3778 -82.0194 269° West 269 310 4,500 2,200 Climbing Cleveland Center
Fri 12:33:12 PM 41.3811 -82.0664 275° West 272 313 5,500 2,302 Climbing Cleveland Center
Fri 12:34:12 PM 41.3614 -82.1517 253° West 267 307 7,800 2,250 Climbing Cleveland Center
Fri 12:35:12 PM 41.3206 -82.2392 238° Southwest 267 307 10,000 1,550 Climbing Cleveland Center
Fri 12:36:12 PM 41.2961 -82.3325 251° West 290 334 10,900 950 Climbing Cleveland Center
Fri 12:37:12 PM 41.2669 -82.4589 253° West 333 383 11,900 1,200 Climbing Cleveland Center
Fri 12:38:12 PM 41.2378 -82.5822 253° West 356 410 13,300 1,450 Climbing Cleveland Center
Fri 12:39:12 PM 41.2064 -82.7139 252° West 367 422 14,800 1,500 Climbing Cleveland Center
Fri 12:40:12 PM 41.1767 -82.8397 253° West 367 422 16,300 1,400 Climbing Cleveland Center
Fri 12:41:12 PM 41.1469 -82.9683 253° West 367 422 17,600 1,150 Climbing Cleveland Center
Fri 12:42:12 PM 41.1150 -83.0967 252° West 367 422 18,600 1,000 Climbing Cleveland Center
Fri 12:43:12 PM 41.0850 -83.2306 253° West 367 422 19,600 1,000 Climbing Cleveland Center
Fri 12:44:12 PM 41.0544 -83.3697 254° West 381 438 20,600 950 Climbing Cleveland Center
Fri 12:45:12 PM 41.0178 -83.5086 251° West 392 451 21,500 936 Climbing Cleveland Center
Fri 12:47:05 PM 40.9500 -83.7700 251° West 408 470 23,300 1,029 Climbing Indianapolis Center
Fri 12:48:07 PM 40.8844 -83.9206 240° Southwest 405 466 24,500 1,016 Climbing Indianapolis Center
Fri 12:49:09 PM 40.8286 -84.0500 240° Southwest 404 465 25,400 1,016 Climbing Indianapolis Center
Fri 12:50:11 PM 40.7736 -84.1781 240° Southwest 400 460 26,600 1,113 Climbing Indianapolis Center
Fri 12:51:13 PM 40.7189 -84.3036 240° Southwest 394 453 27,700 1,113 Climbing Indianapolis Center
Fri 12:52:15 PM 40.6656 -84.4286 241° Southwest 390 449 28,900 1,161 Climbing Indianapolis Center
Fri 12:53:17 PM 40.6117 -84.5506 240° Southwest 384 442 30,100 1,122 Climbing Indianapolis Center
Fri 12:54:18 PM 40.5581 -84.6733 240° Southwest 386 444 31,200 1,220 Climbing Indianapolis Center
Fri 12:55:20 PM 40.4964 -84.8164 240° Southwest 385 443 32,600 1,258 Climbing Indianapolis Center
Fri 12:56:22 PM 40.4419 -84.9347 239° Southwest 384 442 33,800 677 Climbing Indianapolis Center
Fri 12:57:24 PM 40.3875 -85.0553 239° Southwest 386 444 34,000 97 Climbing Indianapolis Center
Fri 12:58:26 PM 40.3311 -85.1842 240° Southwest 406 467 34,000  Level Indianapolis Center
Fri 12:59:28 PM 40.2722 -85.3158 240° Southwest 418 481 34,000  Level Indianapolis Center
Fri 01:00:30 PM 40.2114 -85.4464 239° Southwest 421 484 34,000  Level Indianapolis Center
Fri 01:01:32 PM 40.1206 -85.5833 229° Southwest 418 481 34,000  Level Indianapolis Center
Fri 01:02:35 PM 40.0478 -85.6978 230° Southwest 412 474 34,000  Level Indianapolis Center
Fri 01:03:37 PM 39.9742 -85.8161 231° Southwest 420 483 34,000  Level Indianapolis Center
Fri 01:04:39 PM 39.9000 -85.9333 231° Southwest 421 484 34,000  Level Indianapolis Center
Fri 01:05:41 PM 39.8253 -86.0542 231° Southwest 426 490 34,000  Level Indianapolis Center
Fri 01:06:43 PM 39.7411 -86.2022 234° Southwest 432 497 34,000  Level Indianapolis Center
Fri 01:07:45 PM 39.7311 -86.3594 265° West 436 502 34,000  Level Indianapolis Center
Fri 01:08:47 PM 39.7392 -86.5083 274° West 448 516 34,000  Level Indianapolis Center
Fri 01:09:49 PM 39.7456 -86.6653 273° West 439 505 34,000  Level Indianapolis Center
Fri 01:10:51 PM 39.7544 -86.8544 274° West 439 505 34,000  Level Indianapolis Center
Fri 01:11:53 PM 39.7608 -87.0156 273° West 445 512 34,000  Level Indianapolis Center
Fri 01:12:55 PM 39.7678 -87.1764 273° West 447 514 34,000  Level Indianapolis Center
Fri 01:13:57 PM 39.7733 -87.3369 273° West 447 514 34,000  Level Indianapolis Center
Fri 01:14:59 PM 39.7803 -87.5006 273° West 453 521 34,000  Level Indianapolis Center
Fri 01:16:01 PM 39.7842 -87.6944 272° West 450 518 34,000  Level Indianapolis Center
Fri 01:17:03 PM 39.7842 -87.8547 270° West 447 514 34,000  Level Indianapolis Center
Fri 01:18:05 PM 39.7836 -88.0175 270° West 450 518 34,000  Level Indianapolis Center
Fri 01:19:07 PM 39.7822 -88.1800 269° West 451 519 34,000  Level Indianapolis Center
Fri 01:19:40 PM 39.7819 -88.2708 270° West 451 519 34,000  Level Kansas City Center
Fri 01:20:42 PM 39.7819 -88.4353 270° West 452 520 34,000  Level Kansas City Center
Fri 01:21:44 PM 39.7811 -88.5997 270° West 454 522 34,000  Level Kansas City Center
Fri 01:22:46 PM 39.7806 -88.7628 270° West 453 521 34,000  Level Kansas City Center
Fri 01:23:48 PM 39.7781 -88.9589 269° West 452 520 34,000  Level Kansas City Center
Fri 01:24:50 PM 39.7767 -89.1206 269° West 451 519 34,000  Level Kansas City Center
Fri 01:25:52 PM 39.7750 -89.2753 269° West 437 503 34,000  Level Kansas City Center
Fri 01:26:54 PM 39.7733 -89.4275 269° West 424 488 34,000  Level Kansas City Center
Fri 01:27:56 PM 39.7711 -89.5797 269° West 421 484 34,000  Level Kansas City Center
Fri 01:28:58 PM 39.7692 -89.7289 269° West 416 479 34,000  Level Kansas City Center
Fri 01:30:00 PM 39.7658 -89.8769 268° West 411 473 34,000  Level Kansas City Center
Fri 01:31:02 PM 39.7631 -90.0631 269° West 422 486 34,000  Level Kansas City Center
Fri 01:32:04 PM 39.7603 -90.2233 269° West 433 498 34,000  Level Kansas City Center
Fri 01:33:06 PM 39.7572 -90.3847 269° West 441 507 34,000  Level Kansas City Center
Fri 01:34:09 PM 39.7536 -90.5444 268° West 442 509 34,000  Level Kansas City Center
Fri 01:35:11 PM 39.7500 -90.7058 268° West 443 510 34,000  Level Kansas City Center
Fri 01:36:13 PM 39.7453 -90.8783 268° West 441 507 34,000  Level Kansas City Center
Fri 01:37:15 PM 39.7422 -91.0383 269° West 444 511 34,000  Level Kansas City Center
Fri 01:38:17 PM 39.7378 -91.1992 268° West 447 514 34,000  Level Kansas City Center
Fri 01:39:19 PM 39.7328 -91.3728 268° West 455 524 34,000  Level Kansas City Center
Fri 01:40:21 PM 39.7278 -91.5392 268° West 461 531 34,000  Level Kansas City Center
Fri 01:41:23 PM 39.7222 -91.7086 268° West 467 537 34,000  Level Kansas City Center
Fri 01:42:25 PM 39.7142 -91.9061 267° West 461 531 34,000  Level Kansas City Center
Fri 01:43:26 PM 39.7092 -92.0628 268° West 445 512 34,000 -49 Level Kansas City Center
Fri 01:44:28 PM 39.7039 -92.2181 268° West 435 501 33,900 -484 Descending Kansas City Center
Fri 01:45:30 PM 39.6972 -92.3758 267° West 436 502 33,000 -435 Descending Kansas City Center
Fri 01:46:32 PM 39.6917 -92.5369 267° West 443 510 33,000 -677 Level Kansas City Center
Fri 01:47:34 PM 39.6853 -92.7033 267° West 454 522 31,600 -1,548 Descending Kansas City Center
Fri 01:48:36 PM 39.6764 -92.9000 270° West 456 525 29,800 -1,887 Descending Kansas City Center
Fri 01:49:00 PM 39.6667 -92.9045 270° West  Level FlightAware Approximate
Fri 01:49:38 PM 39.6683 -93.0683 266° West 462 532 27,700  Level Kansas City Center
Fri 01:50:40 PM 39.6617 -93.2408 267° West 474 545 25,500 -2,323 Descending Kansas City Center
Fri 01:51:42 PM 39.6528 -93.4097 266° West 473 544 22,900 -2,323 Descending Kansas City Center
Fri 01:52:44 PM 39.6458 -93.5694 267° West 455 524 20,700 -2,226 Descending Kansas City Center
Fri 01:53:46 PM 39.6378 -93.7422 267° West 405 466 18,300 -2,032 Descending Kansas City Center
Fri 01:54:48 PM 39.6283 -93.8744 265° West 379 436 16,500 -1,694 Descending Kansas City Center
Fri 01:55:50 PM 39.5794 -93.9764 238° Southwest 348 400 14,800 -1,645 Descending Kansas City Center
Fri 01:56:52 PM 39.5211 -94.0931 237° Southwest 347 399 13,100 -1,355 Descending Kansas City Center
Fri 01:57:54 PM 39.4697 -94.1931 236° Southwest 348 400 12,000 -532 Descending Kansas City Center
Fri 01:58:56 PM 39.4100 -94.3114 237° Southwest 354 407 12,000  Level Kansas City Center
Fri 01:59:58 PM 39.3550 -94.4200 237° Southwest 372 428 12,000 -387 Level Kansas City Center
Fri 02:01:00 PM 39.2972 -94.5339 237° Southwest 326 375 11,200 -823 Descending Kansas City Center
Fri 02:02:02 PM 39.2497 -94.6089 231° Southwest 286 329 10,300 -1,210 Descending Kansas City Center
Fri 02:03:04 PM 39.1842 -94.6308 195° South 252 290 8,700 -1,548 Descending Kansas City Center
Fri 02:04:06 PM 39.1053 -94.6528 192° South 257 296 7,100 -1,548 Descending Kansas City Center
Fri 02:05:08 PM 39.0947 -94.7214 259° West 210 242 5,500 -1,694 Descending Kansas City Center
Fri 02:06:10 PM 39.1333 -94.7547 326° Northwest 171 197 3,600 -1,220 Descending Kansas City Center
Fri 02:07:11 PM 39.1786 -94.7397 14° North 173 199 3,000 -585 Descending Kansas City Center
Fri 02:08:13 PM 39.2181 -94.7283 13° North 124 143 2,400 -629 Descending Kansas City Center
Fri 02:09:15 PM 39.2481 -94.7200 12° North 116 133 1,700 -629 Descending Kansas City Center
Fri 02:10:17 PM 39.2797 -94.7111 12° North 120 138 1,100 -581 Descending Kansas City Center

Login

Don't have an account? Register now (free) for customized features, flight alerts, and more!